sensor_id;sensor_type;location;lat;lon;timestamp;P1;durP1;ratioP1;P2;durP2;ratioP2
23555;SDS011;11956;53.184;8.578;2022-10-22T00:01:10;31.95;;;22.20;;
23555;SDS011;11956;53.184;8.578;2022-10-22T00:04:10;32.85;;;23.20;;
23555;SDS011;11956;53.184;8.578;2022-10-22T00:07:11;32.97;;;22.75;;
23555;SDS011;11956;53.184;8.578;2022-10-22T00:10:13;31.13;;;22.38;;
23555;SDS011;11956;53.184;8.578;2022-10-22T00:13:15;31.30;;;23.00;;
23555;SDS011;11956;53.184;8.578;2022-10-22T00:16:16;32.03;;;22.52;;
23555;SDS011;11956;53.184;8.578;2022-10-22T00:19:17;28.67;;;22.25;;
23555;SDS011;11956;53.184;8.578;2022-10-22T00:22:18;40.80;;;25.73;;
23555;SDS011;11956;53.184;8.578;2022-10-22T00:25:19;35.40;;;24.15;;
23555;SDS011;11956;53.184;8.578;2022-10-22T00:28:20;32.28;;;22.42;;
23555;SDS011;11956;53.184;8.578;2022-10-22T00:31:22;35.22;;;23.33;;
23555;SDS011;11956;53.184;8.578;2022-10-22T00:34:23;36.42;;;24.80;;
23555;SDS011;11956;53.184;8.578;2022-10-22T00:37:24;40.78;;;24.52;;
23555;SDS011;11956;53.184;8.578;2022-10-22T00:40:25;34.53;;;23.77;;
23555;SDS011;11956;53.184;8.578;2022-10-22T00:43:26;40.83;;;27.25;;
23555;SDS011;11956;53.184;8.578;2022-10-22T00:46:27;37.88;;;26.45;;
23555;SDS011;11956;53.184;8.578;2022-10-22T00:49:28;37.35;;;25.05;;
23555;SDS011;11956;53.184;8.578;2022-10-22T00:52:29;34.03;;;24.33;;
23555;SDS011;11956;53.184;8.578;2022-10-22T00:55:31;39.08;;;26.67;;
23555;SDS011;11956;53.184;8.578;2022-10-22T00:58:33;36.90;;;24.42;;
23555;SDS011;11956;53.184;8.578;2022-10-22T01:01:40;34.35;;;23.67;;
23555;SDS011;11956;53.184;8.578;2022-10-22T01:04:41;36.58;;;25.45;;
23555;SDS011;11956;53.184;8.578;2022-10-22T01:07:43;37.50;;;24.90;;
23555;SDS011;11956;53.184;8.578;2022-10-22T01:11:52;37.22;;;25.45;;
23555;SDS011;11956;53.184;8.578;2022-10-22T01:18:08;37.47;;;25.35;;
23555;SDS011;11956;53.184;8.578;2022-10-22T01:22:13;38.63;;;25.00;;
23555;SDS011;11956;53.184;8.578;2022-10-22T01:32:16;35.97;;;24.15;;
23555;SDS011;11956;53.184;8.578;2022-10-22T01:35:22;42.90;;;29.38;;
23555;SDS011;11956;53.184;8.578;2022-10-22T01:38:31;39.33;;;26.85;;
23555;SDS011;11956;53.184;8.578;2022-10-22T01:41:33;35.83;;;26.02;;
23555;SDS011;11956;53.184;8.578;2022-10-22T01:44:34;42.97;;;29.42;;
23555;SDS011;11956;53.184;8.578;2022-10-22T01:55:04;50.38;;;32.30;;
23555;SDS011;11956;53.184;8.578;2022-10-22T02:02:48;35.30;;;25.35;;
23555;SDS011;11956;53.184;8.578;2022-10-22T02:05:53;38.78;;;26.27;;
23555;SDS011;11956;53.184;8.578;2022-10-22T02:08:58;39.00;;;27.40;;
23555;SDS011;11956;53.184;8.578;2022-10-22T02:12:02;41.08;;;29.38;;
23555;SDS011;11956;53.184;8.578;2022-10-22T02:15:06;42.65;;;27.98;;
23555;SDS011;11956;53.184;8.578;2022-10-22T02:18:09;44.28;;;29.38;;
23555;SDS011;11956;53.184;8.578;2022-10-22T02:21:10;44.55;;;28.75;;
23555;SDS011;11956;53.184;8.578;2022-10-22T02:24:12;39.47;;;26.38;;
23555;SDS011;11956;53.184;8.578;2022-10-22T02:27:26;42.65;;;27.75;;
23555;SDS011;11956;53.184;8.578;2022-10-22T02:30:52;48.42;;;30.27;;
23555;SDS011;11956;53.184;8.578;2022-10-22T02:33:57;38.40;;;26.92;;
23555;SDS011;11956;53.184;8.578;2022-10-22T02:37:04;38.90;;;27.08;;
23555;SDS011;11956;53.184;8.578;2022-10-22T02:40:06;40.55;;;28.77;;
23555;SDS011;11956;53.184;8.578;2022-10-22T02:43:08;46.17;;;29.38;;
23555;SDS011;11956;53.184;8.578;2022-10-22T02:46:09;38.53;;;26.88;;
23555;SDS011;11956;53.184;8.578;2022-10-22T02:49:10;37.00;;;26.55;;
23555;SDS011;11956;53.184;8.578;2022-10-22T02:52:11;34.80;;;25.55;;
23555;SDS011;11956;53.184;8.578;2022-10-22T02:55:12;36.20;;;25.63;;
23555;SDS011;11956;53.184;8.578;2022-10-22T02:58:13;36.03;;;25.67;;
23555;SDS011;11956;53.184;8.578;2022-10-22T03:01:14;39.75;;;28.00;;
23555;SDS011;11956;53.184;8.578;2022-10-22T03:04:15;38.38;;;25.98;;
23555;SDS011;11956;53.184;8.578;2022-10-22T03:07:15;41.40;;;26.15;;
23555;SDS011;11956;53.184;8.578;2022-10-22T03:10:16;37.75;;;26.38;;
23555;SDS011;11956;53.184;8.578;2022-10-22T03:13:17;43.42;;;29.17;;
23555;SDS011;11956;53.184;8.578;2022-10-22T03:16:18;40.92;;;27.48;;
23555;SDS011;11956;53.184;8.578;2022-10-22T03:19:19;38.13;;;26.65;;
23555;SDS011;11956;53.184;8.578;2022-10-22T03:22:21;37.35;;;25.90;;
23555;SDS011;11956;53.184;8.578;2022-10-22T03:25:27;35.95;;;25.65;;
23555;SDS011;11956;53.184;8.578;2022-10-22T03:28:30;37.17;;;25.02;;
23555;SDS011;11956;53.184;8.578;2022-10-22T03:31:31;35.40;;;25.15;;
23555;SDS011;11956;53.184;8.578;2022-10-22T03:34:31;35.95;;;24.35;;
23555;SDS011;11956;53.184;8.578;2022-10-22T03:37:32;38.25;;;25.48;;
23555;SDS011;11956;53.184;8.578;2022-10-22T03:40:35;34.00;;;24.42;;
23555;SDS011;11956;53.184;8.578;2022-10-22T03:43:36;41.08;;;26.63;;
23555;SDS011;11956;53.184;8.578;2022-10-22T03:46:38;37.20;;;26.58;;
23555;SDS011;11956;53.184;8.578;2022-10-22T03:49:39;33.20;;;23.70;;
23555;SDS011;11956;53.184;8.578;2022-10-22T03:52:40;35.65;;;26.08;;
23555;SDS011;11956;53.184;8.578;2022-10-22T03:55:40;34.65;;;25.63;;
23555;SDS011;11956;53.184;8.578;2022-10-22T03:58:41;37.55;;;26.08;;
23555;SDS011;11956;53.184;8.578;2022-10-22T04:01:42;36.85;;;24.73;;
23555;SDS011;11956;53.184;8.578;2022-10-22T04:04:43;42.78;;;28.33;;
23555;SDS011;11956;53.184;8.578;2022-10-22T04:07:44;39.03;;;27.65;;
23555;SDS011;11956;53.184;8.578;2022-10-22T04:10:49;35.50;;;24.50;;
23555;SDS011;11956;53.184;8.578;2022-10-22T04:13:51;32.42;;;24.05;;
23555;SDS011;11956;53.184;8.578;2022-10-22T04:16:51;36.08;;;26.15;;
23555;SDS011;11956;53.184;8.578;2022-10-22T04:19:52;35.30;;;24.75;;
23555;SDS011;11956;53.184;8.578;2022-10-22T04:22:53;35.97;;;24.50;;
23555;SDS011;11956;53.184;8.578;2022-10-22T04:25:58;37.45;;;25.00;;
23555;SDS011;11956;53.184;8.578;2022-10-22T04:29:01;40.88;;;27.60;;
23555;SDS011;11956;53.184;8.578;2022-10-22T04:32:02;39.08;;;26.83;;
23555;SDS011;11956;53.184;8.578;2022-10-22T04:35:03;34.92;;;25.20;;
23555;SDS011;11956;53.184;8.578;2022-10-22T04:38:04;35.97;;;26.45;;
23555;SDS011;11956;53.184;8.578;2022-10-22T04:41:12;34.13;;;24.65;;
23555;SDS011;11956;53.184;8.578;2022-10-22T04:44:16;45.03;;;28.05;;
23555;SDS011;11956;53.184;8.578;2022-10-22T04:47:17;40.38;;;27.40;;
23555;SDS011;11956;53.184;8.578;2022-10-22T04:50:18;40.08;;;26.25;;
23555;SDS011;11956;53.184;8.578;2022-10-22T04:53:19;37.75;;;26.08;;
23555;SDS011;11956;53.184;8.578;2022-10-22T04:56:24;35.13;;;25.48;;
23555;SDS011;11956;53.184;8.578;2022-10-22T04:59:28;37.10;;;26.42;;
23555;SDS011;11956;53.184;8.578;2022-10-22T05:02:29;37.17;;;27.27;;
23555;SDS011;11956;53.184;8.578;2022-10-22T05:05:30;34.78;;;24.88;;
23555;SDS011;11956;53.184;8.578;2022-10-22T05:08:32;46.45;;;28.83;;
23555;SDS011;11956;53.184;8.578;2022-10-22T05:11:34;37.25;;;26.17;;
23555;SDS011;11956;53.184;8.578;2022-10-22T05:14:37;44.22;;;28.30;;
23555;SDS011;11956;53.184;8.578;2022-10-22T05:17:38;39.55;;;26.38;;
23555;SDS011;11956;53.184;8.578;2022-10-22T05:20:39;42.67;;;29.35;;
23555;SDS011;11956;53.184;8.578;2022-10-22T05:23:41;46.53;;;29.58;;
23555;SDS011;11956;53.184;8.578;2022-10-22T05:26:44;39.50;;;28.17;;
23555;SDS011;11956;53.184;8.578;2022-10-22T05:29:48;44.60;;;28.98;;
23555;SDS011;11956;53.184;8.578;2022-10-22T05:32:49;44.28;;;28.70;;
23555;SDS011;11956;53.184;8.578;2022-10-22T05:35:51;45.47;;;29.73;;
23555;SDS011;11956;53.184;8.578;2022-10-22T05:38:52;42.45;;;28.38;;
23555;SDS011;11956;53.184;8.578;2022-10-22T05:41:54;36.08;;;25.75;;
23555;SDS011;11956;53.184;8.578;2022-10-22T05:44:54;45.78;;;28.13;;
23555;SDS011;11956;53.184;8.578;2022-10-22T05:47:55;44.03;;;30.13;;
23555;SDS011;11956;53.184;8.578;2022-10-22T05:50:56;41.20;;;27.88;;
23555;SDS011;11956;53.184;8.578;2022-10-22T05:54:04;39.38;;;27.50;;
23555;SDS011;11956;53.184;8.578;2022-10-22T05:57:07;38.03;;;26.85;;
23555;SDS011;11956;53.184;8.578;2022-10-22T06:00:08;38.55;;;26.35;;
23555;SDS011;11956;53.184;8.578;2022-10-22T06:03:09;42.03;;;28.48;;
23555;SDS011;11956;53.184;8.578;2022-10-22T06:09:27;45.50;;;29.85;;
23555;SDS011;11956;53.184;8.578;2022-10-22T06:12:31;43.42;;;29.13;;
23555;SDS011;11956;53.184;8.578;2022-10-22T06:15:32;40.67;;;27.75;;
23555;SDS011;11956;53.184;8.578;2022-10-22T06:18:33;41.55;;;28.30;;
23555;SDS011;11956;53.184;8.578;2022-10-22T06:21:34;39.33;;;27.65;;
23555;SDS011;11956;53.184;8.578;2022-10-22T06:24:35;41.22;;;28.63;;
23555;SDS011;11956;53.184;8.578;2022-10-22T06:27:36;45.22;;;28.88;;
23555;SDS011;11956;53.184;8.578;2022-10-22T06:30:37;37.97;;;27.13;;
23555;SDS011;11956;53.184;8.578;2022-10-22T06:33:38;36.80;;;26.45;;
23555;SDS011;11956;53.184;8.578;2022-10-22T06:36:41;40.75;;;26.98;;
23555;SDS011;11956;53.184;8.578;2022-10-22T06:39:44;39.65;;;28.23;;
23555;SDS011;11956;53.184;8.578;2022-10-22T06:42:45;43.15;;;30.42;;
23555;SDS011;11956;53.184;8.578;2022-10-22T06:45:46;38.97;;;28.58;;
23555;SDS011;11956;53.184;8.578;2022-10-22T06:48:50;41.50;;;29.80;;
23555;SDS011;11956;53.184;8.578;2022-10-22T06:51:54;58.42;;;38.95;;
23555;SDS011;11956;53.184;8.578;2022-10-22T06:54:55;59.45;;;39.47;;
23555;SDS011;11956;53.184;8.578;2022-10-22T06:57:56;49.60;;;37.03;;
23555;SDS011;11956;53.184;8.578;2022-10-22T07:01:00;44.33;;;35.15;;
23555;SDS011;11956;53.184;8.578;2022-10-22T07:04:10;37.67;;;31.43;;
23555;SDS011;11956;53.184;8.578;2022-10-22T07:07:11;31.00;;;26.38;;
23555;SDS011;11956;53.184;8.578;2022-10-22T07:10:11;23.30;;;20.70;;
23555;SDS011;11956;53.184;8.578;2022-10-22T07:13:12;17.55;;;15.73;;
23555;SDS011;11956;53.184;8.578;2022-10-22T07:16:14;13.57;;;11.23;;
23555;SDS011;11956;53.184;8.578;2022-10-22T07:19:16;11.43;;;9.48;;
23555;SDS011;11956;53.184;8.578;2022-10-22T07:22:17;8.85;;;7.72;;
23555;SDS011;11956;53.184;8.578;2022-10-22T07:25:18;9.65;;;7.53;;
23555;SDS011;11956;53.184;8.578;2022-10-22T07:28:19;8.32;;;6.30;;
23555;SDS011;11956;53.184;8.578;2022-10-22T07:31:20;8.52;;;6.10;;
23555;SDS011;11956;53.184;8.578;2022-10-22T07:34:21;6.80;;;6.10;;
23555;SDS011;11956;53.184;8.578;2022-10-22T07:37:22;10.20;;;7.00;;
23555;SDS011;11956;53.184;8.578;2022-10-22T07:40:23;6.80;;;5.72;;
23555;SDS011;11956;53.184;8.578;2022-10-22T07:43:24;8.02;;;6.35;;
23555;SDS011;11956;53.184;8.578;2022-10-22T07:46:25;9.20;;;6.30;;
23555;SDS011;11956;53.184;8.578;2022-10-22T07:49:27;9.93;;;7.85;;
23555;SDS011;11956;53.184;8.578;2022-10-22T07:52:27;10.02;;;7.85;;
23555;SDS011;11956;53.184;8.578;2022-10-22T07:55:28;8.73;;;7.50;;
23555;SDS011;11956;53.184;8.578;2022-10-22T07:58:30;9.85;;;7.75;;
23555;SDS011;11956;53.184;8.578;2022-10-22T08:01:31;11.00;;;7.63;;
23555;SDS011;11956;53.184;8.578;2022-10-22T08:04:32;10.63;;;7.90;;
23555;SDS011;11956;53.184;8.578;2022-10-22T08:07:32;9.85;;;7.53;;
23555;SDS011;11956;53.184;8.578;2022-10-22T08:10:33;8.80;;;7.13;;
23555;SDS011;11956;53.184;8.578;2022-10-22T08:13:34;11.98;;;6.85;;
23555;SDS011;11956;53.184;8.578;2022-10-22T08:16:35;7.63;;;5.60;;
23555;SDS011;11956;53.184;8.578;2022-10-22T08:19:36;9.85;;;6.53;;
23555;SDS011;11956;53.184;8.578;2022-10-22T08:22:37;7.90;;;5.60;;
23555;SDS011;11956;53.184;8.578;2022-10-22T08:25:38;6.25;;;5.28;;
23555;SDS011;11956;53.184;8.578;2022-10-22T08:28:39;7.00;;;4.97;;
23555;SDS011;11956;53.184;8.578;2022-10-22T08:31:40;8.05;;;5.43;;
23555;SDS011;11956;53.184;8.578;2022-10-22T08:34:41;9.55;;;5.82;;
23555;SDS011;11956;53.184;8.578;2022-10-22T08:37:41;7.15;;;4.60;;
23555;SDS011;11956;53.184;8.578;2022-10-22T08:40:43;6.07;;;4.25;;
23555;SDS011;11956;53.184;8.578;2022-10-22T08:47:23;7.72;;;4.70;;
23555;SDS011;11956;53.184;8.578;2022-10-22T08:51:00;7.85;;;5.10;;
23555;SDS011;11956;53.184;8.578;2022-10-22T08:54:16;8.43;;;5.13;;
23555;SDS011;11956;53.184;8.578;2022-10-22T09:08:11;8.07;;;4.45;;
23555;SDS011;11956;53.184;8.578;2022-10-22T09:11:17;7.70;;;5.22;;
23555;SDS011;11956;53.184;8.578;2022-10-22T09:14:34;6.47;;;4.15;;
23555;SDS011;11956;53.184;8.578;2022-10-22T09:17:37;8.70;;;4.75;;
23555;SDS011;11956;53.184;8.578;2022-10-22T09:20:55;7.38;;;4.10;;
23555;SDS011;11956;53.184;8.578;2022-10-22T09:27:39;4.95;;;3.65;;
23555;SDS011;11956;53.184;8.578;2022-10-22T09:30:40;4.30;;;3.15;;
23555;SDS011;11956;53.184;8.578;2022-10-22T09:33:43;10.00;;;4.43;;
23555;SDS011;11956;53.184;8.578;2022-10-22T09:36:55;6.75;;;3.45;;
23555;SDS011;11956;53.184;8.578;2022-10-22T09:40:03;10.88;;;4.10;;
23555;SDS011;11956;53.184;8.578;2022-10-22T09:43:05;9.00;;;3.80;;
23555;SDS011;11956;53.184;8.578;2022-10-22T09:46:06;8.43;;;4.72;;
23555;SDS011;11956;53.184;8.578;2022-10-22T09:49:17;8.98;;;4.00;;
23555;SDS011;11956;53.184;8.578;2022-10-22T09:52:25;7.72;;;4.40;;
23555;SDS011;11956;53.184;8.578;2022-10-22T09:55:29;9.32;;;3.92;;
23555;SDS011;11956;53.184;8.578;2022-10-22T09:58:40;10.55;;;4.28;;
23555;SDS011;11956;53.184;8.578;2022-10-22T10:01:54;7.03;;;3.80;;
23555;SDS011;11956;53.184;8.578;2022-10-22T10:05:01;8.05;;;3.55;;
23555;SDS011;11956;53.184;8.578;2022-10-22T10:08:11;7.18;;;4.32;;
23555;SDS011;11956;53.184;8.578;2022-10-22T10:11:17;10.15;;;4.25;;
23555;SDS011;11956;53.184;8.578;2022-10-22T10:32:33;9.57;;;4.70;;
23555;SDS011;11956;53.184;8.578;2022-10-22T10:50:35;8.88;;;3.97;;
23555;SDS011;11956;53.184;8.578;2022-10-22T11:01:36;8.38;;;4.28;;
23555;SDS011;11956;53.184;8.578;2022-10-22T11:08:31;10.73;;;3.67;;
23555;SDS011;11956;53.184;8.578;2022-10-22T11:11:41;12.00;;;3.70;;
23555;SDS011;11956;53.184;8.578;2022-10-22T11:25:20;16.05;;;6.75;;
23555;SDS011;11956;53.184;8.578;2022-10-22T11:28:26;14.23;;;4.88;;
23555;SDS011;11956;53.184;8.578;2022-10-22T11:31:33;9.25;;;3.75;;
23555;SDS011;11956;53.184;8.578;2022-10-22T11:34:43;12.07;;;3.08;;
23555;SDS011;11956;53.184;8.578;2022-10-22T11:37:49;11.65;;;3.72;;
23555;SDS011;11956;53.184;8.578;2022-10-22T11:41:00;10.48;;;2.80;;
23555;SDS011;11956;53.184;8.578;2022-10-22T11:44:25;14.05;;;3.72;;
23555;SDS011;11956;53.184;8.578;2022-10-22T11:48:14;13.75;;;4.32;;
23555;SDS011;11956;53.184;8.578;2022-10-22T11:50:57;10.13;;;3.03;;
23555;SDS011;11956;53.184;8.578;2022-10-22T11:54:01;10.95;;;2.80;;
23555;SDS011;11956;53.184;8.578;2022-10-22T11:57:37;7.50;;;2.53;;
23555;SDS011;11956;53.184;8.578;2022-10-22T12:00:39;10.30;;;3.40;;
23555;SDS011;11956;53.184;8.578;2022-10-22T12:04:14;10.13;;;3.22;;
23555;SDS011;11956;53.184;8.578;2022-10-22T12:10:48;9.80;;;3.47;;
23555;SDS011;11956;53.184;8.578;2022-10-22T12:17:29;12.50;;;4.00;;
23555;SDS011;11956;53.184;8.578;2022-10-22T12:20:30;12.82;;;3.50;;
23555;SDS011;11956;53.184;8.578;2022-10-22T12:23:33;14.43;;;3.28;;
23555;SDS011;11956;53.184;8.578;2022-10-22T12:26:36;8.02;;;2.78;;
23555;SDS011;11956;53.184;8.578;2022-10-22T12:29:36;11.30;;;3.15;;
23555;SDS011;11956;53.184;8.578;2022-10-22T12:32:38;13.40;;;3.50;;
23555;SDS011;11956;53.184;8.578;2022-10-22T12:35:42;8.00;;;2.70;;
23555;SDS011;11956;53.184;8.578;2022-10-22T12:38:45;12.10;;;2.65;;
23555;SDS011;11956;53.184;8.578;2022-10-22T12:41:47;11.50;;;2.80;;
23555;SDS011;11956;53.184;8.578;2022-10-22T12:44:48;11.63;;;3.45;;
23555;SDS011;11956;53.184;8.578;2022-10-22T12:47:56;10.77;;;3.22;;
23555;SDS011;11956;53.184;8.578;2022-10-22T12:51:03;10.55;;;3.00;;
23555;SDS011;11956;53.184;8.578;2022-10-22T12:54:08;10.85;;;3.00;;
23555;SDS011;11956;53.184;8.578;2022-10-22T12:57:37;5.35;;;2.45;;
23555;SDS011;11956;53.184;8.578;2022-10-22T13:00:38;11.48;;;3.20;;
23555;SDS011;11956;53.184;8.578;2022-10-22T13:03:41;9.30;;;2.92;;
23555;SDS011;11956;53.184;8.578;2022-10-22T13:16:33;11.45;;;4.30;;
23555;SDS011;11956;53.184;8.578;2022-10-22T13:19:48;14.35;;;5.03;;
23555;SDS011;11956;53.184;8.578;2022-10-22T13:22:55;9.80;;;3.67;;
23555;SDS011;11956;53.184;8.578;2022-10-22T13:29:17;12.73;;;4.38;;
23555;SDS011;11956;53.184;8.578;2022-10-22T13:32:26;11.32;;;4.60;;
23555;SDS011;11956;53.184;8.578;2022-10-22T13:35:32;11.13;;;3.78;;
23555;SDS011;11956;53.184;8.578;2022-10-22T13:38:35;10.88;;;4.13;;
23555;SDS011;11956;53.184;8.578;2022-10-22T13:41:37;12.20;;;4.10;;
23555;SDS011;11956;53.184;8.578;2022-10-22T13:44:38;11.77;;;4.18;;
23555;SDS011;11956;53.184;8.578;2022-10-22T13:47:39;10.88;;;4.18;;
23555;SDS011;11956;53.184;8.578;2022-10-22T13:50:41;9.45;;;3.55;;
23555;SDS011;11956;53.184;8.578;2022-10-22T13:53:43;9.65;;;3.50;;
23555;SDS011;11956;53.184;8.578;2022-10-22T13:56:46;7.32;;;3.28;;
23555;SDS011;11956;53.184;8.578;2022-10-22T13:59:47;7.68;;;3.03;;
23555;SDS011;11956;53.184;8.578;2022-10-22T14:02:49;12.52;;;3.55;;
23555;SDS011;11956;53.184;8.578;2022-10-22T14:05:54;10.75;;;3.78;;
23555;SDS011;11956;53.184;8.578;2022-10-22T14:08:56;9.20;;;3.65;;
23555;SDS011;11956;53.184;8.578;2022-10-22T14:11:59;10.52;;;3.50;;
23555;SDS011;11956;53.184;8.578;2022-10-22T14:15:00;11.82;;;3.60;;
23555;SDS011;11956;53.184;8.578;2022-10-22T14:18:02;10.38;;;4.20;;
23555;SDS011;11956;53.184;8.578;2022-10-22T14:21:05;11.00;;;3.45;;
23555;SDS011;11956;53.184;8.578;2022-10-22T14:24:08;9.38;;;3.47;;
23555;SDS011;11956;53.184;8.578;2022-10-22T14:27:11;6.35;;;2.88;;
23555;SDS011;11956;53.184;8.578;2022-10-22T14:33:24;9.85;;;4.45;;
23555;SDS011;11956;53.184;8.578;2022-10-22T14:36:31;5.95;;;2.88;;
23555;SDS011;11956;53.184;8.578;2022-10-22T14:39:32;8.82;;;3.42;;
23555;SDS011;11956;53.184;8.578;2022-10-22T14:42:36;10.90;;;3.22;;
23555;SDS011;11956;53.184;8.578;2022-10-22T14:45:41;8.18;;;3.50;;
23555;SDS011;11956;53.184;8.578;2022-10-22T14:48:42;11.18;;;3.67;;
23555;SDS011;11956;53.184;8.578;2022-10-22T14:51:43;10.27;;;3.80;;
23555;SDS011;11956;53.184;8.578;2022-10-22T14:54:44;9.90;;;3.80;;
23555;SDS011;11956;53.184;8.578;2022-10-22T14:57:47;9.55;;;3.75;;
23555;SDS011;11956;53.184;8.578;2022-10-22T15:00:48;9.43;;;3.38;;
23555;SDS011;11956;53.184;8.578;2022-10-22T15:03:50;8.05;;;3.67;;
23555;SDS011;11956;53.184;8.578;2022-10-22T15:06:51;10.38;;;4.40;;
23555;SDS011;11956;53.184;8.578;2022-10-22T15:09:55;9.20;;;3.97;;
23555;SDS011;11956;53.184;8.578;2022-10-22T15:12:56;8.65;;;3.88;;
23555;SDS011;11956;53.184;8.578;2022-10-22T15:15:57;9.85;;;3.80;;
23555;SDS011;11956;53.184;8.578;2022-10-22T15:18:59;12.48;;;3.83;;
23555;SDS011;11956;53.184;8.578;2022-10-22T15:22:00;6.82;;;3.03;;
23555;SDS011;11956;53.184;8.578;2022-10-22T15:25:03;8.82;;;3.53;;
23555;SDS011;11956;53.184;8.578;2022-10-22T15:28:07;6.47;;;3.67;;
23555;SDS011;11956;53.184;8.578;2022-10-22T15:31:09;9.75;;;4.00;;
23555;SDS011;11956;53.184;8.578;2022-10-22T15:34:24;8.88;;;3.78;;
23555;SDS011;11956;53.184;8.578;2022-10-22T15:37:34;10.35;;;3.53;;
23555;SDS011;11956;53.184;8.578;2022-10-22T15:40:36;9.77;;;3.70;;
23555;SDS011;11956;53.184;8.578;2022-10-22T15:43:37;5.95;;;3.40;;
23555;SDS011;11956;53.184;8.578;2022-10-22T15:46:39;7.32;;;4.13;;
23555;SDS011;11956;53.184;8.578;2022-10-22T15:49:40;9.95;;;4.40;;
23555;SDS011;11956;53.184;8.578;2022-10-22T15:52:41;9.70;;;3.83;;
23555;SDS011;11956;53.184;8.578;2022-10-22T15:55:47;13.40;;;4.28;;
23555;SDS011;11956;53.184;8.578;2022-10-22T15:58:58;8.57;;;4.05;;
23555;SDS011;11956;53.184;8.578;2022-10-22T16:02:03;10.13;;;4.32;;
23555;SDS011;11956;53.184;8.578;2022-10-22T16:05:04;7.88;;;4.25;;
23555;SDS011;11956;53.184;8.578;2022-10-22T16:08:05;7.00;;;3.90;;
23555;SDS011;11956;53.184;8.578;2022-10-22T16:11:06;10.38;;;4.38;;
23555;SDS011;11956;53.184;8.578;2022-10-22T16:14:08;10.93;;;4.13;;
23555;SDS011;11956;53.184;8.578;2022-10-22T16:17:11;12.80;;;5.15;;
23555;SDS011;11956;53.184;8.578;2022-10-22T16:20:13;11.85;;;4.40;;
23555;SDS011;11956;53.184;8.578;2022-10-22T16:23:13;12.85;;;5.18;;
23555;SDS011;11956;53.184;8.578;2022-10-22T16:26:18;9.85;;;4.55;;
23555;SDS011;11956;53.184;8.578;2022-10-22T16:29:19;10.90;;;5.00;;
23555;SDS011;11956;53.184;8.578;2022-10-22T16:32:20;9.85;;;4.47;;
23555;SDS011;11956;53.184;8.578;2022-10-22T16:35:21;8.25;;;4.97;;
23555;SDS011;11956;53.184;8.578;2022-10-22T16:38:21;13.15;;;5.28;;
23555;SDS011;11956;53.184;8.578;2022-10-22T16:41:23;11.65;;;5.53;;
23555;SDS011;11956;53.184;8.578;2022-10-22T16:44:24;14.52;;;7.82;;
23555;SDS011;11956;53.184;8.578;2022-10-22T16:47:25;19.10;;;9.73;;
23555;SDS011;11956;53.184;8.578;2022-10-22T16:50:26;12.77;;;5.75;;
23555;SDS011;11956;53.184;8.578;2022-10-22T16:53:27;13.85;;;6.90;;
23555;SDS011;11956;53.184;8.578;2022-10-22T16:56:28;14.18;;;7.47;;
23555;SDS011;11956;53.184;8.578;2022-10-22T16:59:29;9.65;;;5.75;;
23555;SDS011;11956;53.184;8.578;2022-10-22T17:02:30;11.02;;;5.60;;
23555;SDS011;11956;53.184;8.578;2022-10-22T17:05:31;12.18;;;5.75;;
23555;SDS011;11956;53.184;8.578;2022-10-22T17:08:35;13.32;;;5.35;;
23555;SDS011;11956;53.184;8.578;2022-10-22T17:11:37;12.55;;;6.13;;
23555;SDS011;11956;53.184;8.578;2022-10-22T17:14:38;10.57;;;6.25;;
23555;SDS011;11956;53.184;8.578;2022-10-22T17:17:39;11.07;;;6.22;;
23555;SDS011;11956;53.184;8.578;2022-10-22T17:20:40;14.77;;;7.38;;
23555;SDS011;11956;53.184;8.578;2022-10-22T17:23:42;14.15;;;7.35;;
23555;SDS011;11956;53.184;8.578;2022-10-22T17:26:44;11.45;;;5.65;;
23555;SDS011;11956;53.184;8.578;2022-10-22T17:29:45;11.65;;;5.78;;
23555;SDS011;11956;53.184;8.578;2022-10-22T17:32:46;10.82;;;5.80;;
23555;SDS011;11956;53.184;8.578;2022-10-22T17:35:47;14.68;;;6.40;;
23555;SDS011;11956;53.184;8.578;2022-10-22T17:38:52;16.08;;;6.65;;
23555;SDS011;11956;53.184;8.578;2022-10-22T17:41:56;12.43;;;6.35;;
23555;SDS011;11956;53.184;8.578;2022-10-22T17:44:57;10.13;;;5.88;;
23555;SDS011;11956;53.184;8.578;2022-10-22T17:47:58;13.27;;;7.13;;
23555;SDS011;11956;53.184;8.578;2022-10-22T17:50:59;10.77;;;7.00;;
23555;SDS011;11956;53.184;8.578;2022-10-22T17:54:00;16.50;;;8.02;;
23555;SDS011;11956;53.184;8.578;2022-10-22T17:57:01;13.18;;;8.50;;
23555;SDS011;11956;53.184;8.578;2022-10-22T18:00:03;14.32;;;9.00;;
23555;SDS011;11956;53.184;8.578;2022-10-22T18:03:05;15.20;;;8.57;;
23555;SDS011;11956;53.184;8.578;2022-10-22T18:06:06;15.20;;;9.18;;
23555;SDS011;11956;53.184;8.578;2022-10-22T18:09:10;21.50;;;13.83;;
23555;SDS011;11956;53.184;8.578;2022-10-22T18:12:13;20.60;;;9.88;;
23555;SDS011;11956;53.184;8.578;2022-10-22T18:15:17;16.45;;;9.85;;
23555;SDS011;11956;53.184;8.578;2022-10-22T18:18:18;16.55;;;9.48;;
23555;SDS011;11956;53.184;8.578;2022-10-22T18:21:19;13.52;;;8.75;;
23555;SDS011;11956;53.184;8.578;2022-10-22T18:27:23;13.65;;;7.82;;
23555;SDS011;11956;53.184;8.578;2022-10-22T18:30:24;11.63;;;7.93;;
23555;SDS011;11956;53.184;8.578;2022-10-22T18:33:25;17.33;;;8.27;;
23555;SDS011;11956;53.184;8.578;2022-10-22T18:36:26;15.25;;;8.70;;
23555;SDS011;11956;53.184;8.578;2022-10-22T18:39:27;12.48;;;9.32;;
23555;SDS011;11956;53.184;8.578;2022-10-22T18:42:28;13.23;;;9.18;;
23555;SDS011;11956;53.184;8.578;2022-10-22T18:45:29;18.98;;;12.13;;
23555;SDS011;11956;53.184;8.578;2022-10-22T18:48:32;27.67;;;20.05;;
23555;SDS011;11956;53.184;8.578;2022-10-22T18:51:34;17.60;;;12.70;;
23555;SDS011;11956;53.184;8.578;2022-10-22T18:54:35;13.70;;;9.52;;
23555;SDS011;11956;53.184;8.578;2022-10-22T18:57:36;16.38;;;9.98;;
23555;SDS011;11956;53.184;8.578;2022-10-22T19:00:38;19.40;;;10.50;;
23555;SDS011;11956;53.184;8.578;2022-10-22T19:03:38;21.02;;;12.80;;
23555;SDS011;11956;53.184;8.578;2022-10-22T19:06:40;14.82;;;10.90;;
23555;SDS011;11956;53.184;8.578;2022-10-22T19:09:41;16.80;;;10.85;;
23555;SDS011;11956;53.184;8.578;2022-10-22T19:12:42;18.15;;;11.15;;
23555;SDS011;11956;53.184;8.578;2022-10-22T19:15:43;20.67;;;10.73;;
23555;SDS011;11956;53.184;8.578;2022-10-22T19:18:44;19.38;;;10.93;;
23555;SDS011;11956;53.184;8.578;2022-10-22T19:21:45;19.65;;;12.30;;
23555;SDS011;11956;53.184;8.578;2022-10-22T19:24:47;16.92;;;12.93;;
23555;SDS011;11956;53.184;8.578;2022-10-22T19:27:49;20.15;;;12.90;;
23555;SDS011;11956;53.184;8.578;2022-10-22T19:30:50;26.90;;;15.60;;
23555;SDS011;11956;53.184;8.578;2022-10-22T19:33:51;18.10;;;13.07;;
23555;SDS011;11956;53.184;8.578;2022-10-22T19:36:55;17.80;;;12.55;;
23555;SDS011;11956;53.184;8.578;2022-10-22T19:39:57;18.70;;;12.52;;
23555;SDS011;11956;53.184;8.578;2022-10-22T19:42:58;25.38;;;14.65;;
23555;SDS011;11956;53.184;8.578;2022-10-22T19:45:59;20.95;;;14.10;;
23555;SDS011;11956;53.184;8.578;2022-10-22T19:49:04;21.80;;;15.55;;
23555;SDS011;11956;53.184;8.578;2022-10-22T19:52:05;21.30;;;12.32;;
23555;SDS011;11956;53.184;8.578;2022-10-22T19:55:06;21.48;;;13.15;;
23555;SDS011;11956;53.184;8.578;2022-10-22T19:58:09;21.75;;;14.60;;
23555;SDS011;11956;53.184;8.578;2022-10-22T20:01:12;22.25;;;15.65;;
23555;SDS011;11956;53.184;8.578;2022-10-22T20:04:16;20.90;;;14.48;;
23555;SDS011;11956;53.184;8.578;2022-10-22T20:07:17;18.05;;;13.43;;
23555;SDS011;11956;53.184;8.578;2022-10-22T20:10:18;22.77;;;13.85;;